createdAt,value
2023-04-24T00:04:48.476Z,100839.31
2023-04-24T00:09:46.031Z,100824.19
2023-04-24T00:14:48.238Z,100841.94
2023-04-24T00:19:51.714Z,100818.53
2023-04-24T00:24:54.386Z,100826.50
2023-04-24T00:29:58.301Z,100838.63
2023-04-24T00:34:57.412Z,100862.56
2023-04-24T00:39:57.696Z,100857.03
2023-04-24T00:45:01.235Z,100809.78
2023-04-24T00:50:08.386Z,100802.53
2023-04-24T00:55:08.570Z,100844.41
2023-04-24T01:00:13.138Z,100806.72
2023-04-24T01:05:13.685Z,100810.28
2023-04-24T01:10:14.496Z,100792.81
2023-04-24T01:15:14.822Z,100803.84
2023-04-24T01:20:14.897Z,100831.34
2023-04-24T01:25:15.332Z,100765.06
2023-04-24T01:30:14.956Z,100804.16
2023-04-24T01:35:15.945Z,100809.13
2023-04-24T01:40:14.853Z,100793.50
2023-04-24T01:45:15.021Z,100799.94
2023-04-24T01:50:14.692Z,100746.00
2023-04-24T01:55:14.751Z,100750.72
2023-04-24T02:00:15.548Z,100757.94
2023-04-24T02:05:15.647Z,100768.41
2023-04-24T02:10:17.465Z,100751.63
2023-04-24T02:15:17.184Z,100767.00
2023-04-24T02:20:18.600Z,100754.50
2023-04-24T02:25:18.321Z,100738.56
2023-04-24T02:30:17.127Z,100749.88
2023-04-24T02:35:29.793Z,100746.56
2023-04-24T02:40:29.255Z,100717.94
2023-04-24T02:45:32.589Z,100775.94
2023-04-24T02:50:32.921Z,100759.81
2023-04-24T02:55:32.232Z,100735.88
2023-04-24T03:00:29.995Z,100724.03
2023-04-24T03:05:35.543Z,100770.31
2023-04-24T03:10:36.521Z,100745.34
2023-04-24T03:15:36.849Z,100740.28
2023-04-24T03:20:35.847Z,100754.63
2023-04-24T03:25:37.726Z,100729.63
2023-04-24T03:30:37.879Z,100754.81
2023-04-24T03:35:43.153Z,100746.16
2023-04-24T03:40:44.729Z,100753.19
2023-04-24T03:46:16.613Z,100798.53
2023-04-24T03:51:47.594Z,100803.28
2023-04-24T03:56:52.426Z,100756.44
2023-04-24T04:01:51.756Z,100750.41
2023-04-24T04:06:52.945Z,100745.31
2023-04-24T04:11:52.146Z,100763.25
2023-04-24T04:16:51.063Z,100799.31
2023-04-24T04:21:57.908Z,100798.03
2023-04-24T04:27:07.971Z,100767.53
2023-04-24T04:32:16.584Z,100797.50
2023-04-24T04:37:17.495Z,100771.44
2023-04-24T04:42:31.701Z,100755.75
2023-04-24T04:47:33.027Z,100763.19
2023-04-24T04:52:34.717Z,100777.97
2023-04-24T04:57:48.530Z,100747.88
2023-04-24T05:02:48.324Z,100766.06
2023-04-24T05:07:47.639Z,100790.03
2023-04-24T05:12:46.421Z,100786.59
2023-04-24T05:17:44.315Z,100785.41
2023-04-24T05:22:49.884Z,100778.88
2023-04-24T05:27:52.974Z,100798.06
2023-04-24T05:32:57.493Z,100790.63
2023-04-24T05:37:58.903Z,100760.41
2023-04-24T05:43:00.639Z,100761.03
2023-04-24T05:48:10.647Z,100781.41
2023-04-24T05:53:22.352Z,100760.59
2023-04-24T05:58:22.947Z,100755.47
2023-04-24T06:03:26.210Z,100753.38
2023-04-24T06:08:27.578Z,100758.19
2023-04-24T06:13:30.924Z,100767.22
2023-04-24T06:18:48.472Z,100747.41
2023-04-24T06:23:50.916Z,100756.59
2023-04-24T06:28:52.582Z,100754.53
2023-04-24T06:33:57.930Z,100778.47
2023-04-24T06:39:05.893Z,100758.00
2023-04-24T06:44:09.627Z,100761.63
2023-04-24T06:49:21.545Z,100763.59
2023-04-24T06:54:20.087Z,100769.03
2023-04-24T06:59:21.581Z,100802.63
2023-04-24T07:04:20.999Z,100769.56
2023-04-24T07:09:25.034Z,100754.38
2023-04-24T07:14:22.701Z,100773.13
2023-04-24T07:19:21.455Z,100760.38
2023-04-24T07:29:35.986Z,100769.34
2023-04-24T07:34:36.386Z,100801.59
2023-04-24T07:39:38.187Z,100780.75
2023-04-24T07:44:48.798Z,100777.94
2023-04-24T07:49:49.197Z,100767.59
2023-04-24T07:54:49.673Z,100796.16
2023-04-24T07:59:50.295Z,100746.28
2023-04-24T08:04:47.987Z,100762.69
2023-04-24T08:10:12.354Z,100763.22
2023-04-24T08:15:14.693Z,100779.72
2023-04-24T08:20:16.703Z,100737.03
2023-04-24T08:25:21.788Z,100773.56
2023-04-24T08:30:21.556Z,100756.16
2023-04-24T08:35:24.180Z,100749.75
2023-04-24T08:40:30.492Z,100758.91
2023-04-24T08:45:43.621Z,100731.41
2023-04-24T08:50:46.528Z,100742.38
2023-04-24T08:55:49.266Z,100756.31
2023-04-24T09:00:50.662Z,100729.81
2023-04-24T09:05:53.562Z,100741.97
2023-04-24T09:11:06.581Z,100729.59
2023-04-24T09:16:10.414Z,100712.16
2023-04-24T09:21:34.796Z,100709.47
2023-04-24T09:26:40.233Z,100725.03
2023-04-24T09:31:46.226Z,100701.31
2023-04-24T09:36:46.747Z,100702.41
2023-04-24T09:41:53.477Z,100682.78
2023-04-24T09:47:00.564Z,100690.47
2023-04-24T09:52:09.723Z,100690.50
2023-04-24T09:57:10.948Z,100680.72
2023-04-24T10:02:21.821Z,100681.88
2023-04-24T10:07:20.933Z,100665.97
2023-04-24T10:12:23.720Z,100688.56
2023-04-24T10:17:23.318Z,100669.59
2023-04-24T10:22:28.203Z,100669.22
2023-04-24T10:27:31.069Z,100648.72
2023-04-24T10:32:34.740Z,100677.69
2023-04-24T10:37:58.813Z,100673.13
2023-04-24T10:43:17.573Z,100647.59
2023-04-24T10:48:31.428Z,100659.44
2023-04-24T10:53:36.510Z,100617.28
2023-04-24T10:58:39.484Z,100656.72
2023-04-24T11:03:59.792Z,100614.72
2023-04-24T11:09:15.705Z,100625.97
2023-04-24T11:14:24.647Z,100618.25
2023-04-24T11:19:34.719Z,100618.50
2023-04-24T11:24:56.086Z,100607.41
2023-04-24T11:30:12.980Z,100590.63
2023-04-24T11:35:24.149Z,100594.34
2023-04-24T11:40:27.234Z,100636.06
2023-04-24T11:45:32.227Z,100611.81
2023-04-24T11:50:31.705Z,100596.44
2023-04-24T11:55:34.029Z,100590.47
2023-04-24T12:00:36.792Z,100584.50
2023-04-24T12:05:43.568Z,100587.53
2023-04-24T12:10:44.491Z,100564.59
2023-04-24T12:15:44.886Z,100581.53
2023-04-24T12:21:01.344Z,100572.97
2023-04-24T12:26:02.815Z,100563.09
2023-04-24T12:31:07.209Z,100532.19
2023-04-24T12:36:15.146Z,100509.28
2023-04-24T12:41:33.052Z,100520.88
2023-04-24T12:46:46.620Z,100514.75
2023-04-24T12:51:49.649Z,100546.25
2023-04-24T12:56:52.972Z,100544.59
2023-04-24T13:01:56.952Z,100517.50
2023-04-24T13:06:55.934Z,100491.22
2023-04-24T13:11:56.477Z,100484.38
2023-04-24T13:17:01.431Z,100527.28
2023-04-24T13:22:04.694Z,100496.31
2023-04-24T13:27:13.187Z,100473.63
2023-04-24T13:32:15.011Z,100495.13
2023-04-24T13:37:19.011Z,100481.31
2023-04-24T13:42:19.874Z,100464.38
2023-04-24T13:47:24.046Z,100477.88
2023-04-24T13:52:29.693Z,100489.53
2023-04-24T13:57:29.606Z,100451.91
2023-04-24T14:02:32.191Z,100453.63
2023-04-24T14:07:37.348Z,100440.19
2023-04-24T14:12:39.266Z,100442.16
2023-04-24T14:17:40.703Z,100431.00
2023-04-24T14:22:46.203Z,100431.50
2023-04-24T14:27:44.973Z,100426.94
2023-04-24T14:37:58.926Z,100460.56
2023-04-24T14:43:00.136Z,100429.63
2023-04-24T14:48:01.051Z,100451.50
2023-04-24T14:53:11.368Z,100409.34
2023-04-24T14:58:10.813Z,100418.94
2023-04-24T15:03:36.175Z,100425.06
2023-04-24T15:08:40.158Z,100420.44
2023-04-24T15:13:40.712Z,100421.75
2023-04-24T15:18:54.044Z,100385.41
2023-04-24T15:23:52.361Z,100393.22
2023-04-24T15:29:00.529Z,100399.88
2023-04-24T15:34:02.806Z,100393.19
2023-04-24T15:39:06.064Z,100376.25
2023-04-24T15:44:05.804Z,100378.34
2023-04-24T15:49:23.301Z,100350.75
2023-04-24T15:54:26.335Z,100368.28
2023-04-24T15:59:24.237Z,100361.88
2023-04-24T16:04:22.751Z,100387.22
2023-04-24T16:09:22.560Z,100333.78
2023-04-24T16:14:30.944Z,100354.31
2023-04-24T16:19:41.413Z,100329.75
2023-04-24T16:24:43.209Z,100377.22
2023-04-24T16:30:05.854Z,100370.38
2023-04-24T16:35:06.162Z,100323.59
2023-04-24T16:40:19.134Z,100324.09
2023-04-24T16:45:26.183Z,100324.53
2023-04-24T16:51:07.637Z,100360.63
2023-04-24T16:56:12.616Z,100333.00
2023-04-24T17:01:14.126Z,100315.56
2023-04-24T17:06:12.827Z,100349.06
2023-04-24T17:11:14.061Z,100330.34
2023-04-24T17:16:14.801Z,100350.41
2023-04-24T17:21:17.048Z,100351.72
2023-04-24T17:26:18.361Z,100357.53
2023-04-24T17:31:27.434Z,100348.34
2023-04-24T17:36:30.453Z,100372.09
2023-04-24T17:41:30.412Z,100363.34
2023-04-24T17:46:27.936Z,100341.91
2023-04-24T17:51:36.603Z,100333.03
2023-04-24T17:56:38.215Z,100341.88
2023-04-24T18:01:35.922Z,100358.91
2023-04-24T18:06:35.580Z,100365.47
2023-04-24T18:11:35.172Z,100375.00
2023-04-24T18:16:34.263Z,100385.22
2023-04-24T18:21:36.044Z,100399.38
2023-04-24T18:26:34.743Z,100435.34
2023-04-24T18:31:37.332Z,100414.13
2023-04-24T18:36:37.949Z,100436.00
2023-04-24T18:41:41.692Z,100396.75
2023-04-24T18:46:41.720Z,100385.56
2023-04-24T18:51:54.365Z,100386.84
2023-04-24T18:57:12.046Z,100411.09
2023-04-24T19:02:23.734Z,100390.38
2023-04-24T19:07:24.397Z,100394.56
2023-04-24T19:12:36.823Z,100415.94
2023-04-24T19:17:36.026Z,100386.00
2023-04-24T19:22:36.957Z,100409.81
2023-04-24T19:27:42.750Z,100365.41
2023-04-24T19:33:19.892Z,100421.81
2023-04-24T19:38:24.958Z,100372.00
2023-04-24T19:43:35.847Z,100380.09
2023-04-24T19:48:42.018Z,100390.81
2023-04-24T19:53:53.339Z,100423.25
2023-04-24T19:59:03.974Z,100438.41
2023-04-24T20:04:19.065Z,100384.34
2023-04-24T20:09:19.301Z,100410.69
2023-04-24T20:14:37.616Z,100412.97
2023-04-24T20:19:43.438Z,100458.78
2023-04-24T20:25:05.437Z,100414.38
2023-04-24T20:30:25.754Z,100433.47
2023-04-24T20:35:31.071Z,100444.34
2023-04-24T20:40:55.993Z,100464.38
2023-04-24T20:46:08.421Z,100457.91
2023-04-24T20:51:08.240Z,100413.56
2023-04-24T20:56:18.110Z,100421.44
2023-04-24T21:01:18.050Z,100408.25
2023-04-24T21:06:19.446Z,100408.16
2023-04-24T21:11:21.147Z,100396.44
2023-04-24T21:16:23.278Z,100408.19
2023-04-24T21:21:25.266Z,100404.84
2023-04-24T21:26:24.129Z,100389.13
2023-04-24T21:31:27.205Z,100410.00
2023-04-24T21:36:26.924Z,100404.97
2023-04-24T21:41:31.103Z,100400.53
2023-04-24T21:46:30.070Z,100379.69
2023-04-24T21:51:28.937Z,100381.72
2023-04-24T21:56:31.732Z,100371.63
2023-04-24T22:01:30.249Z,100391.41
2023-04-24T22:06:39.782Z,100387.94
2023-04-24T22:11:42.628Z,100412.13
2023-04-24T22:17:00.452Z,100343.97
2023-04-24T22:22:04.253Z,100361.00
2023-04-24T22:27:06.558Z,100363.34
2023-04-24T22:32:05.785Z,100349.34
2023-04-24T22:37:09.391Z,100314.88
2023-04-24T22:42:09.459Z,100351.44
2023-04-24T22:47:09.477Z,100324.75
2023-04-24T22:52:11.009Z,100326.75
2023-04-24T22:57:17.902Z,100354.84
2023-04-24T23:02:21.506Z,100324.72
2023-04-24T23:07:25.751Z,100334.53
2023-04-24T23:12:31.010Z,100308.09
2023-04-24T23:17:44.914Z,100291.56
2023-04-24T23:22:53.314Z,100292.78
2023-04-24T23:27:59.736Z,100278.09
2023-04-24T23:33:04.376Z,100330.72
2023-04-24T23:38:15.239Z,100345.84
2023-04-24T23:43:16.728Z,100307.47
2023-04-24T23:48:17.651Z,100343.44
2023-04-24T23:53:19.780Z,100312.53
2023-04-24T23:58:22.696Z,100288.50
